CheckWX is a tool to help pilots better visualize weather data.  It is not intended as a substitute for an official pre-flight weather briefing.

01:30:27 UTC

RKSM TAF
Seoul Air Base Airport
South Korea
TAF RKSM 172300Z 1800/1906 30008KT 9999 SCT030 BKN200 BECMG 1811/1812 30006KT 9999 BKN025 BKN200 TX06/1806Z TNM03/1821Z

Nov-18@
00:00 UTC

Nov-18 @ 00:00 UTC

Nov-18@
11:00 UTC

Nov-18 @ 11:00 UTC

TAF RKSM 172300Z 1800/1906 30008KT 9999 SCT030 BKN200
Wind
  • 300° at 8 KTS
Cloud Levels
  • Scattered at 3,000' AGL
  • Broken at 20,000' AGL

Nov-18@
11:00 UTC

Nov-18 @ 11:00 UTC

Nov-19@
06:00 UTC

Nov-19 @ 06:00 UTC

BECMG 1811/1812 30006KT 9999 BKN025 BKN200 TX06/1806Z TNM03/1821Z

Becoming

Becoming Conditions expected by Mon, Nov 18, 2019 @ 12:00 UTC

Wind
  • 300° at 6 KTS
Cloud Levels
  • Broken at 2,500' AGL
  • Broken at 20,000' AGL